Date,TemperatureHighF,TemperatureAvgF,TemperatureLowF,DewpointHighF,DewpointAvgF,DewpointLowF,HumidityHigh,HumidityAvg,HumidityLow,PressureMaxIn,PressureMinIn,WindSpeedMaxMPH,WindSpeedAvgMPH,GustSpeedMaxMPH,PrecipitationSumIn
2013-1-1,19,9,0,2,-1,-6,76,65,47,30.36,30.20,6,1,0,0.00
2013-1-2,30,21,9,26,14,2,88,77,65,30.20,30.05,8,2,0,0.00
2013-1-3,30,21,10,26,15,6,86,76,63,30.40,30.16,7,2,0,0.00
2013-1-4,39,25,10,22,17,6,86,73,50,30.35,30.17,10,3,0,0.06
2013-1-5,38,31,24,32,24,18,86,77,70,30.16,29.94,11,4,0,0.08
2013-1-6,31,23,15,18,14,7,79,70,58,30.33,30.09,6,2,0,0.00
2013-1-7,47,35,26,27,23,17,77,62,46,30.21,29.98,12,4,0,0.02
2013-1-8,48,38,30,32,28,23,80,70,53,30.06,29.83,12,4,0,0.00
2013-1-9,47,38,30,33,30,26,86,73,56,30.41,30.07,11,1,0,0.00
2013-1-10,44,36,32,37,30,23,96,79,45,30.37,29.69,14,2,0,0.19
2013-1-11,54,46,36,47,42,36,97,87,68,29.70,29.43,18,6,0,0.02
2013-1-12,53,25,16,42,15,5,85,66,56,30.11,29.51,17,4,0,0.00
2013-1-13,20,13,8,7,3,-1,71,64,56,30.36,30.06,9,2,0,0.00
2013-1-14,31,17,6,11,5,1,81,61,35,30.51,30.36,6,1,0,0.00
2013-1-15,34,23,14,16,10,7,78,60,38,30.40,30.08,9,2,0,0.00
2013-1-16,48,34,20,32,22,9,83,64,53,30.17,29.88,15,4,0,0.00
2013-1-17,38,27,18,27,16,9,83,64,41,30.46,30.18,5,1,0,0.00
2013-1-18,57,41,27,32,28,20,78,62,39,30.35,29.85,25,6,0,0.00
2013-1-19,54,42,19,32,28,3,74,59,36,30.25,29.80,17,6,0,0.00
2013-1-20,19,14,8,9,4,0,78,66,50,30.42,30.25,6,2,0,0.00
2013-1-21,11,5,-2,1,-6,-15,72,61,52,30.50,30.39,10,2,0,0.00
2013-1-22,15,10,3,2,-2,-7,73,57,46,30.48,30.34,4,1,0,0.00
2013-1-23,29,18,6,15,6,-5,74,61,48,30.54,30.21,15,4,0,0.00
2013-1-24,20,12,3,4,-4,-9,61,50,35,30.65,30.24,14,4,0,0.00
2013-1-25,41,26,14,23,14,4,80,62,47,30.29,30.09,10,3,0,0.00
2013-1-26,37,23,8,15,7,0,74,53,32,30.38,30.14,11,3,0,0.00
2013-1-27,42,35,29,41,31,15,97,86,53,30.14,29.71,11,3,0,0.15
2013-1-28,53,40,36,53,39,35,98,97,97,29.88,29.53,6,1,0,0.05
2013-1-29,60,41,32,58,38,30,98,91,87,29.64,29.45,12,4,0,0.00
2013-1-30,32,23,15,31,20,9,94,86,74,29.88,29.46,12,4,0,0.00
2013-1-31,15,6,-1,8,-3,-11,77,68,60,30.43,29.88,12,3,0,0.00
2013-2-1,24,6,-10,14,-4,-17,72,63,51,30.47,30.07,12,2,0,0.00
2013-2-2,30,22,17,26,14,6,89,72,56,30.20,29.99,9,3,0,0.00
2013-2-3,34,26,18,27,15,10,80,65,45,30.19,29.80,13,4,0,0.09
2013-2-4,34,26,17,26,18,13,86,75,66,30.01,29.73,12,3,0,0.01
2013-2-5,45,32,20,33,25,16,89,77,63,30.09,29.81,9,2,0,0.08
2013-2-6,45,35,24,33,29,21,93,78,60,30.11,29.88,8,2,0,0.01
2013-2-7,42,35,28,40,32,25,96,91,75,30.18,29.84,10,3,0,0.85
2013-2-8,29,27,25,25,23,21,87,84,81,30.36,30.19,9,2,0,0.00
2013-2-9,39,32,27,32,27,23,92,85,74,30.26,29.82,16,6,0,0.09
2013-2-10,52,38,32,45,34,23,97,84,59,29.82,29.24,25,9,0,0.09
2013-2-11,33,31,28,24,22,19,76,69,64,30.12,29.60,17,6,0,0.00
2013-2-12,46,33,21,25,22,17,87,67,41,30.14,29.86,8,2,0,0.00
2013-2-13,51,38,26,29,26,22,83,63,39,29.86,29.66,10,2,0,0.00
2013-2-14,43,36,25,30,26,14,78,67,51,30.16,29.67,12,4,0,0.00
2013-2-15,29,23,16,14,10,5,76,59,40,30.33,30.16,10,2,0,0.00
2013-2-16,37,23,10,16,12,6,85,65,38,30.31,30.09,6,1,0,0.00
2013-2-17,49,34,20,26,21,15,83,63,38,30.09,29.63,15,4,0,0.00
2013-2-18,45,33,17,33,23,7,82,67,58,29.93,29.52,15,6,0,0.00
2013-2-19,23,16,10,8,3,-1,68,55,40,30.39,29.94,12,6,0,0.00
2013-2-20,23,14,2,8,0,-7,70,56,40,30.46,30.32,6,1,0,0.00
2013-2-21,24,22,17,22,15,8,91,77,62,30.32,29.81,11,2,0,0.00
2013-2-22,27,24,22,22,19,15,92,81,72,30.00,29.76,8,2,0,0.00
2013-2-23,34,23,13,20,15,9,86,72,57,29.99,29.90,6,2,0,0.00
2013-2-24,42,28,14,28,20,11,87,74,55,30.06,29.93,3,1,0,0.00
2013-2-25,41,34,27,30,27,23,86,76,60,30.07,29.86,6,0,0,0.00
2013-2-26,33,31,29,30,28,26,93,88,78,29.85,29.64,21,7,0,0.00
2013-2-27,31,28,26,28,25,23,93,87,76,29.97,29.76,5,2,0,0.00
2013-2-28,32,27,24,24,22,19,84,79,68,30.16,29.97,6,2,0,0.00
2013-3-1,31,27,24,23,20,15,86,76,67,30.32,30.14,14,3,0,0.00
2013-3-2,33,25,18,18,16,13,80,69,55,30.34,30.18,7,2,0,0.00
2013-3-3,35,27,17,23,18,13,83,72,56,30.18,29.89,14,4,0,0.00
2013-3-4,38,33,29,29,27,23,89,79,66,29.93,29.75,15,4,0,0.00
2013-3-5,32,29,26,30,23,18,93,78,66,30.28,29.91,14,5,0,0.00
2013-3-6,35,26,18,21,18,14,86,73,55,30.42,30.29,13,2,0,0.00
2013-3-7,36,25,14,25,19,11,89,78,62,30.38,30.25,10,3,0,0.00
2013-3-8,45,34,23,33,27,20,89,76,62,30.28,30.01,17,5,0,0.00
2013-3-9,46,40,37,45,38,32,97,93,78,30.00,29.58,11,4,0,0.00
2013-3-10,40,35,32,39,35,31,97,96,96,29.72,29.59,16,5,0,0.00
2013-3-11,31,27,23,30,23,18,96,85,73,29.95,29.71,11,3,0,0.00
2013-3-12,34,26,20,25,20,16,86,75,64,30.25,29.95,16,4,0,0.00
2013-3-13,36,26,17,21,16,12,80,66,48,30.45,30.25,9,2,0,0.00
2013-3-14,53,39,26,36,29,20,87,67,51,30.31,30.04,9,2,0,0.00
2013-3-15,63,44,29,45,37,27,94,78,51,30.04,29.65,7,1,0,0.00
2013-3-16,39,34,28,36,26,20,90,74,59,30.18,29.74,17,5,0,0.00
2013-3-17,42,31,22,28,22,16,80,69,53,30.17,29.81,14,4,0,0.00
2013-3-18,35,30,24,32,22,12,95,74,54,29.99,29.71,16,4,0,0.00
2013-3-19,40,28,18,20,12,7,72,54,35,30.24,29.98,8,3,0,0.00
2013-3-20,28,22,15,20,8,2,75,57,40,30.35,30.15,12,4,0,0.00
2013-3-21,37,24,10,16,10,5,80,58,37,30.15,29.96,5,1,0,0.00
2013-3-22,40,28,18,23,17,14,83,65,41,30.06,29.97,9,1,0,0.00
2013-3-23,41,32,26,29,22,18,93,70,44,30.11,29.98,10,3,0,0.00
2013-3-24,30,29,27,27,26,25,92,90,86,30.01,29.88,12,4,0,0.00
2013-3-25,36,31,27,26,23,20,93,75,54,30.25,29.95,7,2,0,0.00
2013-3-26,37,29,22,23,19,15,78,67,54,30.35,30.25,6,2,0,0.00
2013-3-27,46,34,22,29,23,18,88,67,44,30.34,30.24,10,1,0,0.00
2013-3-28,58,43,28,34,30,25,86,63,38,30.29,30.17,15,2,0,0.00
2013-3-29,64,47,32,38,33,29,87,61,30,30.24,30.08,9,2,0,0.00
2013-3-30,59,50,45,50,44,34,95,80,62,30.07,29.80,11,2,0,0.00
2013-3-31,54,44,34,44,33,19,95,70,26,30.06,29.84,13,3,0,0.00
2013-4-1,41,32,23,20,16,13,74,54,33,30.29,30.06,14,3,0,0.00
2013-4-2,49,33,19,23,18,14,87,58,27,30.34,30.26,10,2,0,0.00
2013-4-3,52,37,24,23,20,17,83,54,27,30.40,30.23,11,1,0,0.00
2013-4-4,64,47,31,37,27,18,62,47,27,30.23,29.98,8,2,0,0.00
2013-4-5,62,49,33,36,31,27,78,52,29,30.16,29.79,14,5,0,0.00
2013-4-6,68,58,52,47,41,37,71,53,42,29.78,29.48,14,5,0,0.00
2013-4-7,71,53,38,46,41,35,89,66,38,29.88,29.61,11,2,0,0.00
2013-4-8,72,60,47,57,53,45,96,78,56,29.72,29.53,8,2,0,0.16
2013-4-9,71,57,44,63,54,43,96,90,73,29.78,29.62,11,3,0,0.36
2013-4-10,44,41,40,42,40,38,96,95,90,29.90,29.68,12,2,0,0.83
2013-4-11,40,38,35,39,36,30,96,91,80,29.69,29.58,10,3,0,0.19
2013-4-12,40,37,34,34,30,24,93,77,64,29.95,29.60,11,4,0,0.00
2013-4-13,52,43,30,37,30,21,78,61,48,29.99,29.77,7,2,0,0.00
2013-4-14,70,54,44,55,46,36,93,73,50,29.76,29.36,18,5,0,0.18
2013-4-15,52,43,40,44,33,27,92,68,50,30.03,29.59,12,2,0,0.00
2013-4-16,51,42,32,34,31,26,80,64,48,30.21,30.02,12,2,0,0.00
2013-4-17,49,43,40,48,40,34,97,90,65,30.14,29.57,17,4,0,2.67
2013-4-18,44,38,34,43,35,27,96,89,75,29.72,29.49,14,5,0,0.72
2013-4-19,45,37,30,28,24,21,79,62,43,30.06,29.68,18,6,0,0.00
2013-4-20,49,38,26,28,24,19,85,60,30,30.26,30.06,7,2,0,0.00
2013-4-21,67,54,40,44,37,27,71,54,34,30.21,30.02,19,6,0,0.00
2013-4-22,68,54,38,49,45,36,94,74,41,30.11,29.86,11,4,0,0.17
2013-4-23,42,37,33,35,28,21,90,72,54,30.12,29.99,13,6,0,0.00
2013-4-24,54,41,26,39,26,20,86,59,29,30.16,30.02,15,3,0,0.04
2013-4-25,62,48,32,38,33,28,88,60,32,30.25,30.09,11,2,0,0.00
2013-4-26,65,57,50,50,44,36,81,63,54,30.15,30.04,18,6,0,0.00
2013-4-27,67,54,42,51,45,41,96,74,50,30.17,29.93,13,2,0,0.00
2013-4-28,74,60,43,52,48,41,96,68,40,29.94,29.70,9,3,0,0.00
2013-4-29,81,68,55,62,56,50,84,66,45,29.72,29.48,15,3,0,0.00
2013-4-30,86,76,63,61,53,47,65,47,31,29.76,29.48,18,8,0,0.00
2013-5-1,62,53,41,47,41,34,78,66,53,30.25,29.77,23,8,0,0.00
2013-5-2,42,35,33,37,33,31,95,92,75,30.41,30.22,20,8,0,1.52
2013-5-3,34,33,32,32,32,30,96,93,87,30.32,29.93,15,4,0,0.47
2013-5-4,50,41,34,47,40,32,96,95,90,30.03,29.84,14,4,0,1.00
2013-5-5,60,50,43,53,47,42,97,91,78,30.08,30.00,6,2,0,0.02
2013-5-6,74,60,47,55,49,45,96,72,36,30.06,29.94,5,1,0,0.00
2013-5-7,78,64,47,54,48,43,95,61,31,30.01,29.90,9,1,0,0.00
2013-5-8,70,61,54,60,54,48,90,78,56,29.94,29.84,5,1,0,0.05
2013-5-9,70,61,56,60,56,53,96,87,62,29.86,29.75,7,1,0,0.34
2013-5-10,67,56,49,53,49,46,94,78,53,29.99,29.85,13,3,0,0.01
2013-5-11,58,53,42,48,31,19,90,48,24,30.16,29.91,19,4,0,0.00
2013-5-12,61,49,37,32,25,21,63,42,23,30.23,30.09,13,1,0,0.00
2013-5-13,76,60,41,51,39,29,65,48,29,30.10,29.78,12,3,0,0.00
2013-5-14,92,77,60,65,56,48,80,51,29,29.78,29.53,14,4,0,0.00
2013-5-15,82,73,62,53,47,42,54,41,28,29.83,29.65,10,1,0,0.00
2013-5-16,80,69,59,67,60,47,87,73,48,29.84,29.72,9,2,0,0.08
2013-5-17,79,71,61,65,61,59,94,73,56,29.85,29.76,12,2,0,0.00
2013-5-18,83,72,61,67,62,58,93,73,52,29.87,29.68,14,3,0,0.00
2013-5-19,86,72,60,68,62,58,96,73,44,29.71,29.46,12,4,0,0.85
2013-5-20,79,68,60,65,59,57,96,77,52,29.61,29.46,11,4,0,0.05
2013-5-21,70,63,56,57,52,48,91,71,50,29.62,29.50,11,2,0,0.00
2013-5-22,60,57,55,56,52,49,91,83,74,29.82,29.59,9,2,0,0.00
2013-5-23,71,61,53,52,48,42,91,66,36,30.20,29.83,12,1,0,0.00
2013-5-24,69,60,47,52,47,42,83,65,43,30.30,30.09,14,3,0,0.02
2013-5-25,61,55,51,55,51,47,96,87,71,30.18,30.06,17,4,0,0.81
2013-5-26,63,57,52,60,54,49,95,89,85,30.08,29.85,11,3,0,0.19
2013-5-27,74,65,59,64,61,58,97,87,67,29.93,29.60,11,1,0,0.62
2013-5-28,78,68,63,69,65,60,97,88,64,29.70,29.55,6,0,0,0.46
2013-5-29,81,72,64,71,64,57,88,76,62,29.73,29.58,16,4,0,0.02
2013-5-30,75,68,62,65,62,59,94,80,67,29.62,29.50,18,4,0,0.10
2013-5-31,74,68,61,64,62,60,96,82,68,29.65,29.56,15,4,0,0.00
2013-6-1,66,62,56,62,55,50,89,78,68,29.87,29.55,6,2,0,0.01
2013-6-2,64,58,51,50,46,44,84,67,49,30.02,29.87,9,1,0,0.01
2013-6-3,71,60,46,53,49,44,95,69,46,30.04,29.88,7,2,0,0.00
2013-6-4,68,61,55,62,56,51,93,85,75,30.00,29.89,9,3,0,0.18
2013-6-5,69,63,60,62,59,53,96,87,67,29.93,29.85,3,0,0,0.02
2013-6-6,72,62,53,57,53,50,88,72,52,29.91,29.84,6,1,0,0.00
2013-6-7,69,60,51,55,52,50,95,77,50,29.95,29.86,5,0,0,0.00
2013-6-8,74,63,51,60,55,49,95,77,51,29.88,29.69,10,2,0,0.05
2013-6-9,72,64,61,62,60,58,96,87,68,29.72,29.64,11,2,0,0.26
2013-6-10,77,67,59,64,62,58,97,84,61,29.83,29.68,4,0,0,0.00
2013-6-11,87,74,63,73,67,61,94,79,59,29.82,29.67,9,1,0,0.00
2013-6-12,89,77,66,73,67,56,92,74,53,29.79,29.60,8,2,0,0.03
2013-6-13,82,72,62,63,58,54,82,63,40,29.98,29.80,5,0,0,0.00
2013-6-14,75,67,64,66,61,58,94,80,64,29.99,29.75,13,2,0,0.40
2013-6-15,82,71,64,73,67,62,97,88,68,29.98,29.78,7,1,0,0.30
2013-6-16,85,74,65,69,64,59,96,73,42,29.89,29.83,3,0,0,0.00
2013-6-17,88,76,63,66,60,51,95,63,29,29.90,29.82,3,0,0,0.00
2013-6-18,85,74,61,63,58,53,81,60,36,29.94,29.86,9,0,0,0.00
2013-6-19,83,73,63,68,63,60,92,73,51,29.99,29.89,6,1,0,0.00
2013-6-20,86,77,66,69,65,61,86,67,51,29.95,29.83,14,4,0,0.00
2013-6-21,88,80,75,75,71,66,83,73,64,29.89,29.77,12,4,0,0.01
2013-6-22,89,82,76,74,71,68,80,69,58,29.90,29.74,13,3,0,0.00
2013-6-23,79,74,64,71,68,63,95,81,69,29.90,29.73,10,3,0,0.65
2013-6-24,78,72,68,72,68,65,94,89,77,29.87,29.73,7,1,0,0.15
2013-6-25,87,78,70,74,71,68,95,80,56,29.76,29.62,8,2,0,0.02
2013-6-26,90,81,74,77,70,63,89,71,44,29.76,29.55,10,1,0,0.00
2013-6-27,85,76,66,71,66,63,90,73,57,29.87,29.75,4,0,0,0.00
2013-6-28,85,78,69,63,58,51,76,53,32,29.81,29.69,6,1,0,0.00
2013-6-29,76,70,66,66,59,55,90,67,51,29.82,29.68,12,2,0,0.16
2013-6-30,80,70,60,59,54,49,82,61,36,30.00,29.83,8,2,0,0.00
2013-7-1,83,70,58,59,53,47,79,57,33,30.06,30.00,9,1,0,0.00
2013-7-2,82,68,57,63,57,53,90,71,41,30.07,29.94,4,0,0,0.02
2013-7-3,79,68,55,63,59,54,95,75,48,30.00,29.91,4,0,0,0.00
2013-7-4,83,72,59,62,59,56,93,67,42,29.97,29.87,7,1,0,0.00
2013-7-5,86,75,62,66,60,56,80,62,44,29.92,29.82,11,3,0,0.00
2013-7-6,88,77,67,68,63,59,77,64,47,29.89,29.78,7,2,0,0.00
2013-7-7,90,79,68,73,67,63,85,68,47,29.83,29.77,11,2,0,0.02
2013-7-8,84,80,75,75,70,66,82,72,63,29.89,29.81,4,1,0,0.00
2013-7-9,90,82,74,78,74,69,91,77,61,29.89,29.76,9,1,0,0.04
2013-7-10,84,78,66,75,62,55,85,60,38,29.97,29.80,9,1,0,0.01
2013-7-11,84,72,59,62,59,56,93,66,41,30.04,29.93,7,1,0,0.00
2013-7-12,84,73,61,64,60,57,88,66,44,30.01,29.91,12,3,0,0.00
2013-7-13,80,72,64,67,60,53,78,68,59,29.98,29.92,10,3,0,0.00
2013-7-14,86,75,62,67,63,59,91,67,46,30.08,29.98,5,1,0,0.00
2013-7-15,88,78,68,73,68,62,86,72,54,30.15,30.05,5,1,0,0.00
2013-7-16,90,81,71,74,70,69,93,71,52,30.17,30.09,5,1,0,0.00
2013-7-17,95,82,72,73,70,67,89,69,44,30.21,30.09,8,0,0,0.00
2013-7-18,93,83,73,72,69,64,87,64,39,30.09,29.85,6,1,0,0.00
2013-7-19,92,84,74,73,68,64,77,60,47,29.85,29.73,6,1,0,0.00
2013-7-20,88,77,64,65,62,54,90,62,33,29.88,29.78,4,0,0,0.00
2013-7-21,83,72,65,70,66,62,95,83,56,29.83,29.73,7,1,0,0.54
2013-7-22,90,77,65,74,68,61,96,78,53,29.80,29.64,7,1,0,0.06
2013-7-23,75,69,64,64,61,57,92,75,57,29.91,29.71,5,0,0,0.00
2013-7-24,80,69,58,60,58,55,92,69,46,29.99,29.91,6,0,0,0.00
2013-7-25,84,72,61,67,63,58,90,73,51,30.00,29.89,7,1,0,0.00
2013-7-26,80,71,61,68,60,51,96,71,40,29.98,29.87,8,1,0,0.38
2013-7-27,70,62,53,54,49,45,93,65,42,30.03,29.93,5,0,0,0.00
2013-7-28,75,63,50,53,49,46,90,64,38,30.00,29.93,7,0,0,0.00
2013-7-29,75,64,53,61,56,50,93,76,53,30.06,30.00,10,1,0,0.03
2013-7-30,73,67,63,67,64,61,96,91,82,30.01,29.96,4,0,0,0.15
2013-7-31,82,72,65,67,64,62,96,79,52,30.05,29.93,4,0,0,0.00
2013-8-1,86,73,62,67,63,55,96,73,36,30.00,29.81,5,1,0,0.00
2013-8-2,84,73,66,69,64,55,92,73,55,29.93,29.80,7,1,0,0.00
2013-8-3,81,71,62,61,57,53,85,64,39,30.10,29.93,4,1,0,0.00
2013-8-4,81,66,56,61,57,54,94,76,46,30.13,29.97,5,1,0,0.00
2013-8-5,82,72,65,71,66,60,92,82,69,29.96,29.75,4,1,0,0.02
2013-8-6,89,76,67,74,70,66,96,82,55,29.81,29.68,9,1,0,1.57
2013-8-7,82,73,67,71,65,61,97,78,53,29.92,29.71,7,1,0,0.00
2013-8-8,80,70,60,65,62,57,93,77,50,29.96,29.88,2,0,0,0.00
2013-8-9,82,72,64,69,63,57,94,75,54,30.05,29.92,6,0,0,0.00
2013-8-10,81,70,59,64,59,56,93,70,47,30.14,30.02,5,0,0,0.00
2013-8-11,84,74,64,64,61,58,81,65,46,30.05,29.91,6,1,0,0.00
2013-8-12,84,73,64,70,64,57,96,75,47,29.98,29.89,7,1,0,0.71
2013-8-13,78,68,59,61,58,54,92,72,47,30.10,29.97,4,0,0,0.00
2013-8-14,75,64,54,56,53,44,89,69,34,30.16,30.06,3,0,0,0.00
2013-8-15,69,63,59,59,55,52,92,76,59,30.10,30.03,6,1,0,0.07
2013-8-16,78,66,55,59,55,52,94,71,45,30.14,30.07,5,1,0,0.00
2013-8-17,81,68,54,62,56,53,96,69,41,30.16,30.05,5,0,0,0.00
2013-8-18,81,69,58,61,58,54,89,68,45,30.11,29.99,5,1,0,0.01
2013-8-19,83,72,60,65,61,57,92,72,50,30.02,29.91,13,1,0,0.00
2013-8-20,88,77,68,69,65,61,82,66,48,29.94,29.85,11,2,0,0.00
2013-8-21,90,80,71,70,67,65,82,66,47,29.93,29.86,7,2,0,0.00
2013-8-22,80,76,71,70,68,66,91,77,65,30.04,29.89,7,0,0,0.00
2013-8-23,87,76,68,73,70,66,96,80,55,30.04,29.93,5,1,0,0.00
2013-8-24,90,80,71,73,68,66,88,69,49,30.05,29.96,10,3,0,0.00
2013-8-25,93,82,72,71,67,64,77,62,44,30.09,29.97,10,3,0,0.00
2013-8-26,95,83,72,73,69,66,87,64,39,30.02,29.87,6,2,0,0.00
2013-8-27,96,84,74,70,68,67,82,61,40,29.88,29.78,12,3,0,0.00
2013-8-28,96,83,72,69,66,64,77,59,35,29.90,29.82,4,0,0,0.00
2013-8-29,93,81,69,74,70,65,89,69,47,29.95,29.82,5,1,0,0.00
2013-8-30,101,86,74,76,70,62,86,64,28,29.82,29.68,6,1,0,0.00
2013-8-31,91,80,70,73,69,64,92,71,41,29.75,29.67,4,0,0,0.00
2013-9-1,84,75,65,69,63,56,94,70,40,29.88,29.66,5,1,0,0.20
2013-9-2,80,68,58,59,55,50,92,67,36,29.99,29.87,5,0,0,0.00
2013-9-3,80,66,51,59,55,49,95,71,42,30.06,29.95,3,0,0,0.00
2013-9-4,89,74,59,64,58,54,88,63,35,30.08,29.97,2,0,0,0.00
2013-9-5,90,77,66,67,64,61,87,68,42,30.11,30.02,3,0,0,0.00
2013-9-6,90,78,64,66,60,55,87,60,31,30.05,29.86,10,2,0,0.00
2013-9-7,96,82,73,71,66,60,77,60,38,29.86,29.73,6,1,0,0.00
2013-9-8,90,79,70,73,71,68,93,77,58,29.83,29.71,6,1,0,0.00
2013-9-9,99,84,73,71,64,58,91,56,27,29.77,29.69,9,2,0,0.00
2013-9-10,96,84,71,64,62,59,71,50,30,29.89,29.77,14,2,0,0.00
2013-9-11,86,78,72,69,67,63,88,69,55,30.00,29.89,4,0,0,0.00
2013-9-12,82,72,61,66,52,41,84,55,26,30.10,29.97,10,2,0,0.00
2013-9-13,75,63,52,50,46,41,83,58,31,30.18,30.04,4,0,0,0.00
2013-9-14,77,63,47,46,43,40,81,52,28,30.08,29.84,7,1,0,0.00
2013-9-15,69,64,59,64,56,45,95,76,43,30.16,29.80,8,1,0,0.62
2013-9-16,63,58,53,55,53,51,95,84,71,30.30,30.16,5,1,0,0.00
2013-9-17,66,59,54,63,57,52,96,93,86,30.20,29.92,4,1,0,0.67
2013-9-18,89,76,66,70,67,63,92,74,51,29.93,29.66,10,2,0,0.01
2013-9-19,85,73,64,71,67,62,96,80,60,29.79,29.62,6,1,0,0.76
2013-9-20,69,61,54,64,52,48,96,72,53,29.93,29.78,5,0,0,0.00
2013-9-21,71,58,46,49,46,43,89,68,37,29.99,29.85,3,0,0,0.00
2013-9-22,77,62,50,55,50,45,86,67,45,29.92,29.81,7,1,0,0.00
2013-9-23,75,62,50,54,51,48,92,69,43,29.90,29.77,16,3,0,0.00
2013-9-24,74,63,55,64,56,50,90,78,58,29.82,29.76,4,0,0,0.00
2013-9-25,78,65,53,61,56,50,90,75,53,29.87,29.76,7,1,0,0.00
2013-9-26,82,70,59,64,60,56,95,73,49,29.87,29.78,14,3,0,0.00
2013-9-27,84,74,65,65,62,60,86,68,45,29.89,29.79,11,4,0,0.00
2013-9-28,69,62,50,65,57,48,93,84,70,29.99,29.71,11,2,0,0.14
2013-9-29,73,58,45,51,46,43,94,69,34,30.03,29.87,9,1,0,0.01
2013-9-30,76,62,49,59,51,46,91,69,38,29.87,29.69,11,3,0,0.00
2013-10-1,82,69,59,60,58,55,87,68,44,29.89,29.72,4,1,0,0.00
2013-10-2,84,71,60,66,60,52,85,68,50,29.95,29.78,10,2,0,0.00
2013-10-3,78,70,65,68,65,63,96,83,61,29.77,29.68,5,1,0,0.22
2013-10-4,79,70,63,71,66,61,96,87,71,29.81,29.65,14,2,0,1.05
2013-10-5,70,55,48,67,42,35,90,62,42,29.88,29.73,10,1,0,0.00
2013-10-6,50,47,42,47,41,35,94,82,63,29.88,29.70,2,0,0,0.13
2013-10-7,73,57,42,48,43,39,90,65,32,30.00,29.87,6,1,0,0.00
2013-10-8,76,62,50,48,46,43,79,58,32,30.02,29.92,14,3,0,0.00
2013-10-9,75,61,49,52,48,46,92,66,37,30.05,29.96,11,2,0,0.00
2013-10-10,77,61,48,56,49,44,89,67,36,30.02,29.82,6,2,0,0.00
2013-10-11,73,65,56,63,58,51,92,78,66,29.82,29.67,12,4,0,0.07
2013-10-12,66,56,44,59,42,33,89,62,30,30.21,29.74,4,0,0,0.00
2013-10-13,67,51,36,41,37,33,92,63,31,30.41,30.22,5,0,0,0.00
2013-10-14,64,54,42,48,39,33,71,57,38,30.31,29.77,19,4,0,0.00
2013-10-15,61,52,47,57,45,40,94,77,64,29.92,29.70,15,3,0,0.18
2013-10-16,50,46,40,43,41,38,91,81,73,29.98,29.91,4,0,0,0.00
2013-10-17,63,49,38,43,38,33,94,71,35,29.93,29.78,5,1,0,0.00
2013-10-18,49,44,38,40,33,29,88,69,46,30.04,29.90,9,0,0,0.00
2013-10-19,58,46,34,35,33,28,90,63,34,29.95,29.75,7,1,0,0.00
2013-10-20,62,50,38,45,39,33,85,68,49,29.87,29.67,5,0,0,0.00
2013-10-21,49,42,36,38,30,26,84,64,44,30.05,29.88,7,1,0,0.00
2013-10-22,44,40,34,39,35,29,89,83,69,30.05,29.82,6,0,0,0.01
2013-10-23,42,37,31,36,32,27,94,82,59,30.13,30.04,4,0,0,0.00
2013-10-24,44,37,31,33,28,26,86,72,56,30.36,30.13,6,0,0,0.00
2013-10-25,56,41,25,30,27,22,89,60,34,30.41,30.01,11,3,0,0.00
2013-10-26,54,46,34,34,29,26,78,55,35,30.13,29.91,10,2,0,0.00
2013-10-27,63,44,28,34,30,24,88,61,31,30.11,29.83,9,2,0,0.00
2013-10-28,57,45,36,39,35,31,84,67,46,30.23,29.93,6,0,0,0.00
2013-10-29,58,48,40,50,42,35,91,80,67,30.23,29.96,7,0,0,0.00
2013-10-30,62,56,53,61,55,51,97,96,92,29.95,29.57,11,0,0,0.01
2013-10-31,55,46,42,54,43,39,96,90,80,29.60,29.42,0,0,0,0.00
2013-11-1,57,47,39,42,38,36,91,72,48,29.84,29.48,2,0,0,0.00
2013-11-2,55,46,36,40,36,30,87,70,41,30.11,29.83,5,0,0,0.00
2013-11-3,57,46,33,37,34,29,87,64,40,30.12,29.87,20,4,0,0.00
2013-11-4,55,50,45,47,43,37,92,76,60,30.10,29.86,10,3,0,0.00
2013-11-5,58,50,45,56,48,40,96,89,74,30.11,29.73,15,2,0,0.00
2013-11-6,46,38,30,43,32,26,95,78,50,30.25,29.79,13,1,0,0.00
2013-11-7,48,36,29,33,28,23,92,73,47,30.32,30.22,4,0,0,0.00
2013-11-8,60,45,29,36,30,22,77,56,38,30.28,29.75,17,4,0,0.00
2013-11-9,59,50,41,38,34,29,72,56,39,30.26,29.80,4,0,0,0.00
2013-11-10,51,41,27,31,28,23,86,62,43,30.42,30.12,6,1,0,0.00
2013-11-11,50,36,18,40,26,10,88,70,50,30.71,30.05,12,3,0,0.00
2013-11-12,30,19,11,15,11,6,82,69,49,30.89,30.62,3,0,0,0.00
2013-11-13,50,34,19,20,14,9,68,46,28,30.61,30.04,13,5,0,0.00
2013-11-14,55,43,36,29,25,19,64,50,35,30.03,29.85,10,3,0,0.00
2013-11-15,58,44,33,39,32,27,82,65,41,29.89,29.67,7,1,0,0.00
2013-11-16,69,58,45,57,51,40,89,78,61,29.67,29.25,24,4,0,0.00
2013-11-17,57,49,41,55,44,35,95,83,69,29.94,29.20,13,2,0,0.00
2013-11-18,50,40,33,35,31,28,83,72,50,30.25,29.95,6,0,0,0.00
2013-11-19,55,43,31,33,30,27,86,63,38,30.24,29.96,16,5,0,0.00
2013-11-20,46,40,35,37,33,24,93,78,44,29.98,29.85,11,3,0,0.00
2013-11-21,39,32,26,38,30,23,95,92,87,30.43,29.98,12,3,0,0.00
2013-11-22,26,21,15,23,15,9,90,78,61,30.64,30.43,6,1,0,0.00
2013-11-23,21,14,6,11,4,1,80,65,46,30.86,30.61,10,2,0,0.00
2013-11-24,28,16,3,11,5,-2,82,65,42,30.81,30.27,11,3,0,0.00
2013-11-25,37,30,25,27,21,11,84,68,56,30.27,30.08,10,3,0,0.00
2013-11-26,30,26,18,25,15,6,83,65,45,30.36,30.12,14,2,0,0.00
2013-11-27,28,20,11,13,9,5,78,62,45,30.43,30.08,10,2,0,0.00
2013-11-28,35,26,16,17,14,11,81,63,47,30.52,30.05,10,1,0,0.00
2013-11-29,42,27,12,25,18,8,86,71,47,30.55,30.21,13,2,0,0.00
2013-11-30,55,39,30,33,28,24,86,65,43,30.21,30.01,6,1,0,0.00
2013-12-1,44,35,25,30,27,22,89,74,56,30.14,29.88,5,0,0,0.01
2013-12-2,54,41,31,41,34,27,85,76,57,29.87,29.51,10,1,0,0.00
2013-12-3,46,40,37,41,38,35,96,91,80,29.62,29.48,6,0,0,0.00
2013-12-4,39,32,19,38,29,12,96,89,74,29.92,29.48,10,2,0,0.01
2013-12-5,18,14,8,11,4,-3,74,64,56,30.44,29.93,6,2,0,0.00
2013-12-6,13,8,3,-1,-4,-7,68,60,49,30.72,30.42,12,1,0,0.00
2013-12-7,17,6,-3,1,-5,-10,73,61,40,30.82,30.54,2,0,0,0.00
2013-12-8,19,15,12,14,9,1,86,77,61,30.54,30.02,7,0,0,0.00
2013-12-9,15,5,0,11,-3,-8,84,69,53,30.34,30.08,6,1,0,0.00
2013-12-10,23,18,6,13,6,-5,74,62,50,30.25,30.04,12,3,0,0.00
2013-12-11,24,10,2,20,0,-7,87,65,50,30.65,30.20,13,3,0,0.00
2013-12-12,33,18,4,18,8,-6,79,63,54,30.55,30.13,10,3,0,0.02
2013-12-13,36,26,18,27,20,12,84,78,68,30.13,29.92,7,0,0,0.01
2013-12-14,25,20,15,21,16,9,89,82,72,30.18,30.00,12,2,0,0.00
2013-12-15,20,16,11,11,8,4,79,70,60,30.17,30.04,2,0,0,0.00
2013-12-16,32,22,15,25,17,10,88,82,72,30.12,29.98,5,0,0,0.00
2013-12-17,38,30,21,26,19,12,87,66,41,30.21,30.08,10,1,0,0.00
2013-12-18,51,37,20,31,24,12,79,61,45,30.17,29.71,14,3,0,0.00
2013-12-19,40,34,29,32,29,26,92,84,69,29.83,29.70,11,1,0,0.02
2013-12-20,30,25,21,28,22,17,92,90,86,29.91,29.75,9,1,0,0.00
2013-12-21,25,23,20,23,19,16,91,84,78,29.90,29.72,5,2,0,0.00
2013-12-22,25,20,10,23,14,2,92,81,70,30.32,29.74,10,-385,0,0.00
2013-12-24,18,7,-19,15,-2,-27,89,66,51,30.57,30.22,13,-142,0,0.00
2013-12-25,34,25,18,28,20,14,90,80,66,30.27,30.15,8,-499,0,0.05
2013-12-26,39,29,18,26,20,12,83,72,56,30.25,30.09,3,-457,0,0.14
2013-12-27,49,34,18,29,24,15,90,68,44,30.25,30.06,10,-366,0,0.07
2013-12-28,50,41,28,30,28,24,83,62,44,30.05,29.77,13,-288,0,0.00
2013-12-29,27,10,1,22,-2,-12,82,60,38,30.37,29.92,10,-546,0,0.00
2013-12-30,18,9,-1,12,0,-12,80,68,50,30.36,30.15,0,-999,0,0.00
2013-12-31,18,12,7,10,5,2,80,74,67,30.34,30.15,4,-614,0,0.00
2014-1-1,10,8,5,5,2,-2,80,76,73,30.38,30.20,0,-999,0,0.00
2014-1-2,11,3,-8,-2,-6,-14,76,67,51,30.53,30.36,5,-504,0,0.01